LKBU weather

Bubovice Airport
Bubovice, Central Bohemian Region, Czechia

Public forecast

Using degrees Celsius for public forecast. Weather courtesy of forecast.io.

METAR (pilot weather report)

Closest report is Václav Havel Airport Prague, 8.2 nm (15.2 km) NNE. Retrieved 2019/05/24 10:30 UTC (0 seconds ago):

LKPR 241030Z 35006KT 300V030 9999 FEW043 18/07 Q1015 NOSIG

TAF (pilot weather forecast)

Closest forecast is Václav Havel Airport Prague, 8.2 nm (15.2 km) NNE. Retrieved 2019/05/24 06:29 UTC (4 hours ago):

TAF LKPR 240500Z 2406/2512 25008KT CAVOK BECMG 2416/2418 19004KT BECMG 2509/2511 29008KT 9999 SCT043